Wagon Mound, New Mexico
Current Conditions -  °F | °C
As of 11:53 PM on Friday 28 Nov 2014 (Local Time) from KLVS Reporting Station
Clear Clear  
Wind Chill: 35°   Ceiling: Unl
Heat Index: 42°   Visibility: 10mi
Dew Point: 11°   Wind: 14mph
Humidity: 28%   Direction: 160°SSE
Pressure: 30.01"   Gusts: NA
Location:  36.01°N, 104.71°W
Report Text: KLVS 290653Z AUTO 16012KT 10SM CLR 06/M12 A3001 RMK AO2 SLP082 T00561117 402220006
Loading
Personal Weather Stations






























Interactive Weather Map New forecast layout! Learn more

10-Day Weather Forecast

Advertisements
Track Severe Weather on mobile